Doksany, Czech Republic

6:05 AM CEST on August 29, 2016 (GMT +0200)
Prestavlky u Roudnice nad Labem | | Change Station

Elev 610 ft 50.40 °N, 14.19 °E | Updated 10 seconds ago

Partly Cloudy
Partly Cloudy
63.3 °F
Feels Like 63.3 °F
N
0.0
Wind Variable Wind from NW
Gusts 0.0 mph

Today
High -- | Low -- °F
--% Chance of Precip.
Yesterday
High -- | Low -- °F
Precip. -- in
Pressure 29.98 in
Visibility 6.2 miles
Clouds Few 4000 ft
Dew Point 60 °F
Humidity 90%
Rainfall 0.00 in
Snow Depth Not available.
6:13 AM 7:53 PM
Waning Crescent, 11% visible
METAR LKPR 290400Z 25005KT 9999 VCTS FEW040CB 19/16 Q1015 TEMPO 33020KT 9999 -TSRA BKN030CB
Pressure 29.98 in
Visibility 6.2 miles
Clouds Few 4000 ft
Dew Point 60 °F
Humidity 90%
Rainfall 0.00 in
Snow Depth Not available.
6:13 AM 7:53 PM
Waning Crescent, 11% visible
METAR LKPR 290400Z 25005KT 9999 VCTS FEW040CB 19/16 Q1015 TEMPO 33020KT 9999 -TSRA BKN030CB

10-Day Weather Forecast

×

Almanac

Astronomy

Aug. 29, 2016 Rise Set
Actual Time
Civil Twilight
Nautical Twilight
Astronomical Twilight
Moon
Length of Visible Light
Length of Day
Tomorrow will be .
, % of the Moon is Illuminated

Today's Extremes

Country Highs Country Lows

Community

WunderPhotos

Upload Photos

1,935,790 photos uploaded!

WunderBlog® & News

Nearby

Air Quality

  Air Quality AQ Index Pollutant
Not available.

Snow Depth

Station Depth Elevation

Earthquake Activity

City Distance Mag. Time & Date
Minimum magnitude displayed is 2.5.

Coastal Water Temperatures

Place Temperature

Stations

Nearby Weather Stations

Station Location Temp. Windchill Dew Point Humidity Wind Precip. Elev Updated Type